sensor_id;sensor_type;location;lat;lon;timestamp;temperature;humidity
32536;DHT22;18974;50.838;4.636;2024-01-15T00:01:17;3.20;99.90
32536;DHT22;18974;50.838;4.636;2024-01-15T00:03:43;3.20;99.90
32536;DHT22;18974;50.838;4.636;2024-01-15T00:06:08;3.20;99.90
32536;DHT22;18974;50.838;4.636;2024-01-15T00:08:34;3.10;99.90
32536;DHT22;18974;50.838;4.636;2024-01-15T00:10:59;2.90;99.90
32536;DHT22;18974;50.838;4.636;2024-01-15T00:13:25;2.90;99.90
32536;DHT22;18974;50.838;4.636;2024-01-15T00:15:51;2.80;99.90
32536;DHT22;18974;50.838;4.636;2024-01-15T00:18:16;2.80;99.90
32536;DHT22;18974;50.838;4.636;2024-01-15T00:20:42;2.90;99.90
32536;DHT22;18974;50.838;4.636;2024-01-15T00:23:08;2.90;99.90
32536;DHT22;18974;50.838;4.636;2024-01-15T00:25:33;3.00;99.90
32536;DHT22;18974;50.838;4.636;2024-01-15T00:27:59;3.10;99.90
32536;DHT22;18974;50.838;4.636;2024-01-15T00:30:25;3.10;99.90
32536;DHT22;18974;50.838;4.636;2024-01-15T00:32:50;3.10;99.90
32536;DHT22;18974;50.838;4.636;2024-01-15T00:35:16;3.10;99.90
32536;DHT22;18974;50.838;4.636;2024-01-15T00:37:42;3.10;99.90
32536;DHT22;18974;50.838;4.636;2024-01-15T00:40:08;3.10;99.90
32536;DHT22;18974;50.838;4.636;2024-01-15T00:42:34;3.10;99.90
32536;DHT22;18974;50.838;4.636;2024-01-15T00:44:59;3.00;99.90
32536;DHT22;18974;50.838;4.636;2024-01-15T00:47:26;2.90;99.90
32536;DHT22;18974;50.838;4.636;2024-01-15T00:49:51;2.90;99.90
32536;DHT22;18974;50.838;4.636;2024-01-15T00:52:17;2.90;99.90
32536;DHT22;18974;50.838;4.636;2024-01-15T00:54:43;3.00;99.90
32536;DHT22;18974;50.838;4.636;2024-01-15T00:57:08;3.00;99.90
32536;DHT22;18974;50.838;4.636;2024-01-15T00:59:34;3.10;99.90
32536;DHT22;18974;50.838;4.636;2024-01-15T01:02:00;3.20;99.90
32536;DHT22;18974;50.838;4.636;2024-01-15T01:04:25;3.20;99.90
32536;DHT22;18974;50.838;4.636;2024-01-15T01:06:51;3.30;99.90
32536;DHT22;18974;50.838;4.636;2024-01-15T01:09:17;3.40;99.90
32536;DHT22;18974;50.838;4.636;2024-01-15T01:11:42;3.30;99.90
32536;DHT22;18974;50.838;4.636;2024-01-15T01:14:08;3.20;99.90
32536;DHT22;18974;50.838;4.636;2024-01-15T01:16:34;3.30;99.90
32536;DHT22;18974;50.838;4.636;2024-01-15T01:19:05;3.40;99.90
32536;DHT22;18974;50.838;4.636;2024-01-15T01:21:31;3.50;99.90
32536;DHT22;18974;50.838;4.636;2024-01-15T01:23:57;3.50;99.90
32536;DHT22;18974;50.838;4.636;2024-01-15T01:26:23;3.40;99.90
32536;DHT22;18974;50.838;4.636;2024-01-15T01:28:48;3.40;99.90
32536;DHT22;18974;50.838;4.636;2024-01-15T01:31:14;3.40;99.90
32536;DHT22;18974;50.838;4.636;2024-01-15T01:33:41;3.40;99.90
32536;DHT22;18974;50.838;4.636;2024-01-15T01:36:08;3.30;99.90
32536;DHT22;18974;50.838;4.636;2024-01-15T01:38:35;3.30;99.90
32536;DHT22;18974;50.838;4.636;2024-01-15T01:41:01;3.30;99.90
32536;DHT22;18974;50.838;4.636;2024-01-15T01:43:26;3.30;99.90
32536;DHT22;18974;50.838;4.636;2024-01-15T01:45:52;3.30;99.90
32536;DHT22;18974;50.838;4.636;2024-01-15T01:48:20;3.40;99.90
32536;DHT22;18974;50.838;4.636;2024-01-15T01:50:46;3.30;99.90
32536;DHT22;18974;50.838;4.636;2024-01-15T01:53:12;3.30;99.90
32536;DHT22;18974;50.838;4.636;2024-01-15T01:55:38;3.30;99.90
32536;DHT22;18974;50.838;4.636;2024-01-15T01:58:04;3.20;99.90
32536;DHT22;18974;50.838;4.636;2024-01-15T02:00:32;3.10;99.90
32536;DHT22;18974;50.838;4.636;2024-01-15T02:02:59;3.10;99.90
32536;DHT22;18974;50.838;4.636;2024-01-15T02:05:25;3.20;99.90
32536;DHT22;18974;50.838;4.636;2024-01-15T02:07:52;3.20;99.90
32536;DHT22;18974;50.838;4.636;2024-01-15T02:10:18;3.20;99.90
32536;DHT22;18974;50.838;4.636;2024-01-15T02:12:43;3.20;99.90
32536;DHT22;18974;50.838;4.636;2024-01-15T02:15:10;3.10;99.90
32536;DHT22;18974;50.838;4.636;2024-01-15T02:17:57;3.10;99.90
32536;DHT22;18974;50.838;4.636;2024-01-15T02:20:23;3.10;99.90
32536;DHT22;18974;50.838;4.636;2024-01-15T02:22:48;3.20;99.90
32536;DHT22;18974;50.838;4.636;2024-01-15T02:25:14;3.10;99.90
32536;DHT22;18974;50.838;4.636;2024-01-15T02:27:40;3.10;99.90
32536;DHT22;18974;50.838;4.636;2024-01-15T02:30:07;3.20;99.90
32536;DHT22;18974;50.838;4.636;2024-01-15T02:32:33;3.20;99.90
32536;DHT22;18974;50.838;4.636;2024-01-15T02:34:59;3.20;99.90
32536;DHT22;18974;50.838;4.636;2024-01-15T02:37:25;3.20;99.90
32536;DHT22;18974;50.838;4.636;2024-01-15T02:39:50;3.30;99.90
32536;DHT22;18974;50.838;4.636;2024-01-15T02:42:16;3.40;99.90
32536;DHT22;18974;50.838;4.636;2024-01-15T02:44:41;3.40;99.90
32536;DHT22;18974;50.838;4.636;2024-01-15T02:47:07;3.40;99.90
32536;DHT22;18974;50.838;4.636;2024-01-15T02:49:33;3.40;99.90
32536;DHT22;18974;50.838;4.636;2024-01-15T02:51:58;3.30;99.90
32536;DHT22;18974;50.838;4.636;2024-01-15T02:54:24;3.40;99.90
32536;DHT22;18974;50.838;4.636;2024-01-15T02:56:50;3.40;99.90
32536;DHT22;18974;50.838;4.636;2024-01-15T02:59:15;3.50;99.90
32536;DHT22;18974;50.838;4.636;2024-01-15T03:01:41;3.40;99.90
32536;DHT22;18974;50.838;4.636;2024-01-15T03:04:07;3.40;99.90
32536;DHT22;18974;50.838;4.636;2024-01-15T03:06:32;3.50;99.90
32536;DHT22;18974;50.838;4.636;2024-01-15T03:08:58;3.50;99.90
32536;DHT22;18974;50.838;4.636;2024-01-15T03:11:24;3.50;99.90
32536;DHT22;18974;50.838;4.636;2024-01-15T03:13:50;3.60;99.90
32536;DHT22;18974;50.838;4.636;2024-01-15T03:16:15;3.50;99.90
32536;DHT22;18974;50.838;4.636;2024-01-15T03:18:41;3.60;99.90
32536;DHT22;18974;50.838;4.636;2024-01-15T03:21:06;3.60;99.90
32536;DHT22;18974;50.838;4.636;2024-01-15T03:23:32;3.60;99.90
32536;DHT22;18974;50.838;4.636;2024-01-15T03:25:58;3.70;99.90
32536;DHT22;18974;50.838;4.636;2024-01-15T03:28:23;3.60;99.90
32536;DHT22;18974;50.838;4.636;2024-01-15T03:30:49;3.80;99.90
32536;DHT22;18974;50.838;4.636;2024-01-15T03:33:15;3.80;99.90
32536;DHT22;18974;50.838;4.636;2024-01-15T03:35:40;3.70;99.90
32536;DHT22;18974;50.838;4.636;2024-01-15T03:38:07;3.70;99.90
32536;DHT22;18974;50.838;4.636;2024-01-15T03:40:33;3.70;99.90
32536;DHT22;18974;50.838;4.636;2024-01-15T03:42:58;3.70;99.90
32536;DHT22;18974;50.838;4.636;2024-01-15T03:45:24;3.80;99.90
32536;DHT22;18974;50.838;4.636;2024-01-15T03:47:50;3.70;99.90
32536;DHT22;18974;50.838;4.636;2024-01-15T03:50:15;3.70;99.90
32536;DHT22;18974;50.838;4.636;2024-01-15T03:52:41;3.80;99.90
32536;DHT22;18974;50.838;4.636;2024-01-15T03:55:07;3.70;99.90
32536;DHT22;18974;50.838;4.636;2024-01-15T03:57:32;3.60;99.90
32536;DHT22;18974;50.838;4.636;2024-01-15T03:59:58;3.60;99.90
32536;DHT22;18974;50.838;4.636;2024-01-15T04:02:24;3.60;99.90
32536;DHT22;18974;50.838;4.636;2024-01-15T04:04:49;3.50;99.90
32536;DHT22;18974;50.838;4.636;2024-01-15T04:07:15;3.40;99.90
32536;DHT22;18974;50.838;4.636;2024-01-15T04:09:40;3.50;99.90
32536;DHT22;18974;50.838;4.636;2024-01-15T04:12:06;3.30;99.90
32536;DHT22;18974;50.838;4.636;2024-01-15T04:14:32;3.30;99.90
32536;DHT22;18974;50.838;4.636;2024-01-15T04:16:58;3.40;99.90
32536;DHT22;18974;50.838;4.636;2024-01-15T04:19:23;3.40;99.90
32536;DHT22;18974;50.838;4.636;2024-01-15T04:21:49;3.50;99.90
32536;DHT22;18974;50.838;4.636;2024-01-15T04:24:15;3.40;99.90
32536;DHT22;18974;50.838;4.636;2024-01-15T04:26:43;3.40;99.90
32536;DHT22;18974;50.838;4.636;2024-01-15T04:29:09;3.50;99.90
32536;DHT22;18974;50.838;4.636;2024-01-15T04:31:34;3.50;99.90
32536;DHT22;18974;50.838;4.636;2024-01-15T04:34:00;3.40;99.90
32536;DHT22;18974;50.838;4.636;2024-01-15T04:36:26;3.50;99.90
32536;DHT22;18974;50.838;4.636;2024-01-15T04:38:51;3.40;99.90
32536;DHT22;18974;50.838;4.636;2024-01-15T04:41:17;3.40;99.90
32536;DHT22;18974;50.838;4.636;2024-01-15T04:43:43;3.20;99.90
32536;DHT22;18974;50.838;4.636;2024-01-15T04:46:08;3.20;99.90
32536;DHT22;18974;50.838;4.636;2024-01-15T04:48:34;3.30;99.90
32536;DHT22;18974;50.838;4.636;2024-01-15T04:51:00;3.30;99.90
32536;DHT22;18974;50.838;4.636;2024-01-15T04:53:26;3.30;99.90
32536;DHT22;18974;50.838;4.636;2024-01-15T04:55:52;3.40;99.90
32536;DHT22;18974;50.838;4.636;2024-01-15T04:58:17;3.30;99.90
32536;DHT22;18974;50.838;4.636;2024-01-15T05:00:43;3.30;99.90
32536;DHT22;18974;50.838;4.636;2024-01-15T05:03:09;3.40;99.90
32536;DHT22;18974;50.838;4.636;2024-01-15T05:05:34;3.40;99.90
32536;DHT22;18974;50.838;4.636;2024-01-15T05:08:00;3.40;99.90
32536;DHT22;18974;50.838;4.636;2024-01-15T05:10:26;3.20;99.90
32536;DHT22;18974;50.838;4.636;2024-01-15T05:12:51;3.20;99.90
32536;DHT22;18974;50.838;4.636;2024-01-15T05:15:17;3.00;99.90
32536;DHT22;18974;50.838;4.636;2024-01-15T05:17:43;3.00;99.90
32536;DHT22;18974;50.838;4.636;2024-01-15T05:20:09;3.10;99.90
32536;DHT22;18974;50.838;4.636;2024-01-15T05:22:35;3.30;99.90
32536;DHT22;18974;50.838;4.636;2024-01-15T05:25:00;3.30;99.90
32536;DHT22;18974;50.838;4.636;2024-01-15T05:27:26;3.30;99.90
32536;DHT22;18974;50.838;4.636;2024-01-15T05:29:52;3.40;99.90
32536;DHT22;18974;50.838;4.636;2024-01-15T05:32:17;3.20;99.90
32536;DHT22;18974;50.838;4.636;2024-01-15T05:34:43;3.20;99.90
32536;DHT22;18974;50.838;4.636;2024-01-15T05:37:08;3.20;99.90
32536;DHT22;18974;50.838;4.636;2024-01-15T05:39:34;2.90;99.90
32536;DHT22;18974;50.838;4.636;2024-01-15T05:42:00;3.00;99.90
32536;DHT22;18974;50.838;4.636;2024-01-15T05:44:25;3.00;99.90
32536;DHT22;18974;50.838;4.636;2024-01-15T05:46:51;3.00;99.90
32536;DHT22;18974;50.838;4.636;2024-01-15T05:49:17;3.00;99.90
32536;DHT22;18974;50.838;4.636;2024-01-15T05:51:42;3.00;99.90
32536;DHT22;18974;50.838;4.636;2024-01-15T05:54:08;2.80;99.90
32536;DHT22;18974;50.838;4.636;2024-01-15T05:56:34;2.70;99.90
32536;DHT22;18974;50.838;4.636;2024-01-15T05:59:00;2.60;99.90
32536;DHT22;18974;50.838;4.636;2024-01-15T06:01:25;2.50;99.90
32536;DHT22;18974;50.838;4.636;2024-01-15T06:03:52;2.60;99.90
32536;DHT22;18974;50.838;4.636;2024-01-15T06:06:17;2.60;99.90
32536;DHT22;18974;50.838;4.636;2024-01-15T06:08:43;2.60;99.90
32536;DHT22;18974;50.838;4.636;2024-01-15T06:11:09;2.50;99.90
32536;DHT22;18974;50.838;4.636;2024-01-15T06:13:34;2.50;99.90
32536;DHT22;18974;50.838;4.636;2024-01-15T06:16:00;2.40;99.90
32536;DHT22;18974;50.838;4.636;2024-01-15T06:18:26;2.40;99.90
32536;DHT22;18974;50.838;4.636;2024-01-15T06:20:51;2.30;99.90
32536;DHT22;18974;50.838;4.636;2024-01-15T06:23:17;2.30;99.90
32536;DHT22;18974;50.838;4.636;2024-01-15T06:25:42;2.20;99.90
32536;DHT22;18974;50.838;4.636;2024-01-15T06:28:08;2.30;99.90
32536;DHT22;18974;50.838;4.636;2024-01-15T06:30:35;2.30;99.90
32536;DHT22;18974;50.838;4.636;2024-01-15T06:33:00;2.40;99.90
32536;DHT22;18974;50.838;4.636;2024-01-15T06:35:26;2.40;99.90
32536;DHT22;18974;50.838;4.636;2024-01-15T06:37:51;2.30;99.90
32536;DHT22;18974;50.838;4.636;2024-01-15T06:40:17;2.20;99.90
32536;DHT22;18974;50.838;4.636;2024-01-15T06:42:43;2.20;99.90
32536;DHT22;18974;50.838;4.636;2024-01-15T06:45:09;2.00;99.90
32536;DHT22;18974;50.838;4.636;2024-01-15T06:47:34;2.10;99.90
32536;DHT22;18974;50.838;4.636;2024-01-15T06:50:00;2.10;99.90
32536;DHT22;18974;50.838;4.636;2024-01-15T06:52:26;2.20;99.90
32536;DHT22;18974;50.838;4.636;2024-01-15T06:54:51;2.10;99.90
32536;DHT22;18974;50.838;4.636;2024-01-15T06:57:17;2.10;99.90
32536;DHT22;18974;50.838;4.636;2024-01-15T06:59:45;2.10;99.90
32536;DHT22;18974;50.838;4.636;2024-01-15T07:02:11;2.00;99.90
32536;DHT22;18974;50.838;4.636;2024-01-15T07:04:37;2.10;99.90
32536;DHT22;18974;50.838;4.636;2024-01-15T07:07:04;2.10;99.90
32536;DHT22;18974;50.838;4.636;2024-01-15T07:09:29;2.10;99.90
32536;DHT22;18974;50.838;4.636;2024-01-15T07:11:55;2.10;99.90
32536;DHT22;18974;50.838;4.636;2024-01-15T07:14:23;2.10;99.90
32536;DHT22;18974;50.838;4.636;2024-01-15T07:16:48;2.00;99.90
32536;DHT22;18974;50.838;4.636;2024-01-15T07:19:14;2.00;99.90
32536;DHT22;18974;50.838;4.636;2024-01-15T07:21:40;1.90;99.90
32536;DHT22;18974;50.838;4.636;2024-01-15T07:24:07;1.90;99.90
32536;DHT22;18974;50.838;4.636;2024-01-15T07:26:33;1.90;99.90
32536;DHT22;18974;50.838;4.636;2024-01-15T07:28:59;1.80;99.90
32536;DHT22;18974;50.838;4.636;2024-01-15T07:31:24;1.90;99.90
32536;DHT22;18974;50.838;4.636;2024-01-15T07:33:50;1.90;99.90
32536;DHT22;18974;50.838;4.636;2024-01-15T07:36:16;2.00;99.90
32536;DHT22;18974;50.838;4.636;2024-01-15T07:38:41;2.10;99.90
32536;DHT22;18974;50.838;4.636;2024-01-15T07:41:08;2.00;99.90
32536;DHT22;18974;50.838;4.636;2024-01-15T07:43:33;2.10;99.90
32536;DHT22;18974;50.838;4.636;2024-01-15T07:45:59;2.10;99.90
32536;DHT22;18974;50.838;4.636;2024-01-15T07:48:25;2.00;99.90
32536;DHT22;18974;50.838;4.636;2024-01-15T07:50:50;2.00;99.90
32536;DHT22;18974;50.838;4.636;2024-01-15T07:53:16;2.00;99.90
32536;DHT22;18974;50.838;4.636;2024-01-15T07:55:41;2.10;99.90
32536;DHT22;18974;50.838;4.636;2024-01-15T07:58:07;2.20;99.90
32536;DHT22;18974;50.838;4.636;2024-01-15T08:00:33;2.20;99.90
32536;DHT22;18974;50.838;4.636;2024-01-15T08:02:58;2.30;99.90
32536;DHT22;18974;50.838;4.636;2024-01-15T08:05:24;2.40;99.90
32536;DHT22;18974;50.838;4.636;2024-01-15T08:07:50;2.40;99.90
32536;DHT22;18974;50.838;4.636;2024-01-15T08:10:15;2.60;99.90
32536;DHT22;18974;50.838;4.636;2024-01-15T08:12:41;2.60;99.90
32536;DHT22;18974;50.838;4.636;2024-01-15T08:15:07;2.70;99.90
32536;DHT22;18974;50.838;4.636;2024-01-15T08:17:33;2.70;99.90
32536;DHT22;18974;50.838;4.636;2024-01-15T08:19:58;2.70;99.90
32536;DHT22;18974;50.838;4.636;2024-01-15T08:22:25;2.80;99.90
32536;DHT22;18974;50.838;4.636;2024-01-15T08:24:51;2.80;99.90
32536;DHT22;18974;50.838;4.636;2024-01-15T08:27:17;2.80;99.90
32536;DHT22;18974;50.838;4.636;2024-01-15T08:29:43;2.80;99.90
32536;DHT22;18974;50.838;4.636;2024-01-15T08:32:10;2.80;99.90
32536;DHT22;18974;50.838;4.636;2024-01-15T08:34:39;2.80;99.90
32536;DHT22;18974;50.838;4.636;2024-01-15T08:37:08;2.70;99.90
32536;DHT22;18974;50.838;4.636;2024-01-15T08:39:34;2.80;99.90
32536;DHT22;18974;50.838;4.636;2024-01-15T08:41:59;2.90;99.90
32536;DHT22;18974;50.838;4.636;2024-01-15T08:44:25;2.80;99.90
32536;DHT22;18974;50.838;4.636;2024-01-15T08:46:51;2.70;99.90
32536;DHT22;18974;50.838;4.636;2024-01-15T08:49:16;2.80;99.90
32536;DHT22;18974;50.838;4.636;2024-01-15T08:51:42;2.80;99.90
32536;DHT22;18974;50.838;4.636;2024-01-15T08:54:08;2.80;99.90
32536;DHT22;18974;50.838;4.636;2024-01-15T08:56:34;2.90;99.90
32536;DHT22;18974;50.838;4.636;2024-01-15T08:58:59;3.00;99.90
32536;DHT22;18974;50.838;4.636;2024-01-15T09:01:25;3.00;99.90
32536;DHT22;18974;50.838;4.636;2024-01-15T09:03:51;3.00;99.90
32536;DHT22;18974;50.838;4.636;2024-01-15T09:06:17;3.00;99.90
32536;DHT22;18974;50.838;4.636;2024-01-15T09:08:42;3.10;99.90
32536;DHT22;18974;50.838;4.636;2024-01-15T09:11:08;3.10;99.90
32536;DHT22;18974;50.838;4.636;2024-01-15T09:13:34;3.20;99.90
32536;DHT22;18974;50.838;4.636;2024-01-15T09:15:59;3.20;99.90
32536;DHT22;18974;50.838;4.636;2024-01-15T09:18:25;3.20;99.90
32536;DHT22;18974;50.838;4.636;2024-01-15T09:20:51;3.20;99.90
32536;DHT22;18974;50.838;4.636;2024-01-15T09:23:16;3.30;99.90
32536;DHT22;18974;50.838;4.636;2024-01-15T09:25:42;3.20;99.90
32536;DHT22;18974;50.838;4.636;2024-01-15T09:28:08;3.30;99.90
32536;DHT22;18974;50.838;4.636;2024-01-15T09:30:33;3.30;99.90
32536;DHT22;18974;50.838;4.636;2024-01-15T09:32:59;3.20;99.90
32536;DHT22;18974;50.838;4.636;2024-01-15T09:35:25;3.20;99.90
32536;DHT22;18974;50.838;4.636;2024-01-15T09:37:50;3.30;99.90
32536;DHT22;18974;50.838;4.636;2024-01-15T09:40:16;3.40;99.90
32536;DHT22;18974;50.838;4.636;2024-01-15T09:42:43;3.50;99.90
32536;DHT22;18974;50.838;4.636;2024-01-15T09:45:09;3.60;99.90
32536;DHT22;18974;50.838;4.636;2024-01-15T09:47:36;3.60;99.90
32536;DHT22;18974;50.838;4.636;2024-01-15T09:50:03;3.60;99.90
32536;DHT22;18974;50.838;4.636;2024-01-15T09:52:30;3.80;99.90
32536;DHT22;18974;50.838;4.636;2024-01-15T09:54:58;4.10;99.90
32536;DHT22;18974;50.838;4.636;2024-01-15T09:57:24;4.10;99.90
32536;DHT22;18974;50.838;4.636;2024-01-15T09:59:52;4.20;99.90
32536;DHT22;18974;50.838;4.636;2024-01-15T10:02:19;4.40;99.90
32536;DHT22;18974;50.838;4.636;2024-01-15T10:04:45;4.50;99.90
32536;DHT22;18974;50.838;4.636;2024-01-15T10:07:16;4.60;99.90
32536;DHT22;18974;50.838;4.636;2024-01-15T10:09:44;4.60;99.90
32536;DHT22;18974;50.838;4.636;2024-01-15T10:12:11;4.80;99.90
32536;DHT22;18974;50.838;4.636;2024-01-15T10:14:37;5.00;99.90
32536;DHT22;18974;50.838;4.636;2024-01-15T10:17:12;4.90;99.90
32536;DHT22;18974;50.838;4.636;2024-01-15T10:19:39;4.90;99.90
32536;DHT22;18974;50.838;4.636;2024-01-15T10:22:10;4.90;99.90
32536;DHT22;18974;50.838;4.636;2024-01-15T10:24:40;5.00;99.90
32536;DHT22;18974;50.838;4.636;2024-01-15T10:27:07;5.00;99.90
32536;DHT22;18974;50.838;4.636;2024-01-15T10:29:33;5.10;99.90
32536;DHT22;18974;50.838;4.636;2024-01-15T10:31:59;5.30;99.90
32536;DHT22;18974;50.838;4.636;2024-01-15T10:34:25;5.50;99.90
32536;DHT22;18974;50.838;4.636;2024-01-15T10:36:50;5.60;99.90
32536;DHT22;18974;50.838;4.636;2024-01-15T10:39:24;5.60;99.90
32536;DHT22;18974;50.838;4.636;2024-01-15T10:41:51;5.70;99.90
32536;DHT22;18974;50.838;4.636;2024-01-15T10:44:17;5.60;99.90
32536;DHT22;18974;50.838;4.636;2024-01-15T10:46:43;5.50;99.90
32536;DHT22;18974;50.838;4.636;2024-01-15T10:49:11;5.60;99.90
32536;DHT22;18974;50.838;4.636;2024-01-15T10:51:38;5.70;99.90
32536;DHT22;18974;50.838;4.636;2024-01-15T10:54:04;5.70;99.90
32536;DHT22;18974;50.838;4.636;2024-01-15T10:56:31;5.70;99.90
32536;DHT22;18974;50.838;4.636;2024-01-15T10:58:57;5.70;99.90
32536;DHT22;18974;50.838;4.636;2024-01-15T11:01:24;5.60;99.90
32536;DHT22;18974;50.838;4.636;2024-01-15T11:03:49;5.60;99.90
32536;DHT22;18974;50.838;4.636;2024-01-15T11:06:19;5.50;99.90
32536;DHT22;18974;50.838;4.636;2024-01-15T11:08:48;5.60;99.90
32536;DHT22;18974;50.838;4.636;2024-01-15T11:11:16;5.70;99.90
32536;DHT22;18974;50.838;4.636;2024-01-15T11:13:42;6.00;99.90
32536;DHT22;18974;50.838;4.636;2024-01-15T11:16:14;6.30;99.90
32536;DHT22;18974;50.838;4.636;2024-01-15T11:18:40;6.30;99.90
32536;DHT22;18974;50.838;4.636;2024-01-15T11:28:57;6.10;99.90
32536;DHT22;18974;50.838;4.636;2024-01-15T11:32:06;6.10;99.90
32536;DHT22;18974;50.838;4.636;2024-01-15T11:34:58;6.30;99.90
32536;DHT22;18974;50.838;4.636;2024-01-15T11:37:26;6.30;99.90
32536;DHT22;18974;50.838;4.636;2024-01-15T11:39:56;6.20;99.90
32536;DHT22;18974;50.838;4.636;2024-01-15T11:42:25;6.40;99.90
32536;DHT22;18974;50.838;4.636;2024-01-15T11:44:53;6.60;99.90
32536;DHT22;18974;50.838;4.636;2024-01-15T11:50:15;6.60;99.90
32536;DHT22;18974;50.838;4.636;2024-01-15T11:52:45;6.40;99.90
32536;DHT22;18974;50.838;4.636;2024-01-15T11:57:53;6.30;99.90
32536;DHT22;18974;50.838;4.636;2024-01-15T12:00:22;6.40;99.90
32536;DHT22;18974;50.838;4.636;2024-01-15T12:02:49;6.70;99.90
32536;DHT22;18974;50.838;4.636;2024-01-15T12:05:17;7.00;99.90
32536;DHT22;18974;50.838;4.636;2024-01-15T12:07:44;7.40;99.90
32536;DHT22;18974;50.838;4.636;2024-01-15T12:10:18;7.50;99.90
32536;DHT22;18974;50.838;4.636;2024-01-15T12:15:38;7.50;99.90
32536;DHT22;18974;50.838;4.636;2024-01-15T12:18:08;7.60;99.90
32536;DHT22;18974;50.838;4.636;2024-01-15T12:20:34;7.30;99.90
32536;DHT22;18974;50.838;4.636;2024-01-15T12:23:01;6.90;99.90
32536;DHT22;18974;50.838;4.636;2024-01-15T12:25:30;6.80;99.90
32536;DHT22;18974;50.838;4.636;2024-01-15T12:27:56;6.60;99.90
32536;DHT22;18974;50.838;4.636;2024-01-15T12:30:22;6.70;99.90
32536;DHT22;18974;50.838;4.636;2024-01-15T12:32:48;7.00;99.90
32536;DHT22;18974;50.838;4.636;2024-01-15T12:35:14;7.10;99.90
32536;DHT22;18974;50.838;4.636;2024-01-15T12:37:41;7.30;99.90
32536;DHT22;18974;50.838;4.636;2024-01-15T12:40:08;7.60;99.90
32536;DHT22;18974;50.838;4.636;2024-01-15T12:42:39;7.60;99.90
32536;DHT22;18974;50.838;4.636;2024-01-15T12:45:06;7.80;99.90
32536;DHT22;18974;50.838;4.636;2024-01-15T12:47:32;8.00;99.90
32536;DHT22;18974;50.838;4.636;2024-01-15T12:49:58;8.10;99.90
32536;DHT22;18974;50.838;4.636;2024-01-15T12:52:27;7.70;99.90
32536;DHT22;18974;50.838;4.636;2024-01-15T12:54:53;7.20;99.90
32536;DHT22;18974;50.838;4.636;2024-01-15T12:57:19;7.00;99.90
32536;DHT22;18974;50.838;4.636;2024-01-15T12:59:45;6.90;99.90
32536;DHT22;18974;50.838;4.636;2024-01-15T13:02:13;6.80;99.90
32536;DHT22;18974;50.838;4.636;2024-01-15T13:04:40;6.70;99.90
32536;DHT22;18974;50.838;4.636;2024-01-15T13:07:06;6.60;99.90
32536;DHT22;18974;50.838;4.636;2024-01-15T13:09:35;6.50;99.90
32536;DHT22;18974;50.838;4.636;2024-01-15T13:12:02;6.60;99.90
32536;DHT22;18974;50.838;4.636;2024-01-15T13:14:28;6.80;99.90
32536;DHT22;18974;50.838;4.636;2024-01-15T13:16:54;6.90;99.90
32536;DHT22;18974;50.838;4.636;2024-01-15T13:19:20;7.00;99.90
32536;DHT22;18974;50.838;4.636;2024-01-15T13:21:47;6.90;99.90
32536;DHT22;18974;50.838;4.636;2024-01-15T13:24:15;6.70;99.90
32536;DHT22;18974;50.838;4.636;2024-01-15T13:26:41;6.80;99.90
32536;DHT22;18974;50.838;4.636;2024-01-15T13:29:07;6.70;99.90
32536;DHT22;18974;50.838;4.636;2024-01-15T13:31:33;6.50;99.90
32536;DHT22;18974;50.838;4.636;2024-01-15T13:33:59;6.40;99.90
32536;DHT22;18974;50.838;4.636;2024-01-15T13:36:25;6.30;99.90
32536;DHT22;18974;50.838;4.636;2024-01-15T13:38:52;5.80;99.90
32536;DHT22;18974;50.838;4.636;2024-01-15T13:41:19;5.50;99.90
32536;DHT22;18974;50.838;4.636;2024-01-15T13:43:49;5.10;99.90
32536;DHT22;18974;50.838;4.636;2024-01-15T13:46:18;4.60;99.90
32536;DHT22;18974;50.838;4.636;2024-01-15T13:48:43;4.30;99.90
32536;DHT22;18974;50.838;4.636;2024-01-15T13:51:09;4.10;99.90
32536;DHT22;18974;50.838;4.636;2024-01-15T13:53:38;4.00;99.90
32536;DHT22;18974;50.838;4.636;2024-01-15T13:56:04;3.90;99.90
32536;DHT22;18974;50.838;4.636;2024-01-15T13:58:31;3.80;99.90
32536;DHT22;18974;50.838;4.636;2024-01-15T14:00:58;3.60;99.90
32536;DHT22;18974;50.838;4.636;2024-01-15T14:03:24;3.40;99.90
32536;DHT22;18974;50.838;4.636;2024-01-15T14:05:51;3.10;99.90
32536;DHT22;18974;50.838;4.636;2024-01-15T14:08:17;3.00;99.90
32536;DHT22;18974;50.838;4.636;2024-01-15T14:10:43;3.00;99.90
32536;DHT22;18974;50.838;4.636;2024-01-15T14:13:08;2.80;99.90
32536;DHT22;18974;50.838;4.636;2024-01-15T14:15:35;2.80;99.90
32536;DHT22;18974;50.838;4.636;2024-01-15T14:18:00;2.70;99.90
32536;DHT22;18974;50.838;4.636;2024-01-15T14:20:26;2.80;99.90
32536;DHT22;18974;50.838;4.636;2024-01-15T14:22:53;2.80;99.90
32536;DHT22;18974;50.838;4.636;2024-01-15T14:25:18;3.00;99.90
32536;DHT22;18974;50.838;4.636;2024-01-15T14:27:44;3.10;99.90
32536;DHT22;18974;50.838;4.636;2024-01-15T14:30:11;3.00;99.90
32536;DHT22;18974;50.838;4.636;2024-01-15T14:32:38;3.10;99.90
32536;DHT22;18974;50.838;4.636;2024-01-15T14:35:05;3.20;99.90
32536;DHT22;18974;50.838;4.636;2024-01-15T14:37:31;3.40;99.90
32536;DHT22;18974;50.838;4.636;2024-01-15T14:39:57;3.40;99.90
32536;DHT22;18974;50.838;4.636;2024-01-15T14:42:22;3.50;99.90
32536;DHT22;18974;50.838;4.636;2024-01-15T14:44:49;3.30;99.90
32536;DHT22;18974;50.838;4.636;2024-01-15T14:47:15;3.10;99.90
32536;DHT22;18974;50.838;4.636;2024-01-15T14:49:41;3.00;99.90
32536;DHT22;18974;50.838;4.636;2024-01-15T14:52:06;3.00;99.90
32536;DHT22;18974;50.838;4.636;2024-01-15T14:54:32;3.10;99.90
32536;DHT22;18974;50.838;4.636;2024-01-15T14:56:58;3.00;99.90
32536;DHT22;18974;50.838;4.636;2024-01-15T14:59:24;3.10;99.90
32536;DHT22;18974;50.838;4.636;2024-01-15T15:01:49;3.20;99.90
32536;DHT22;18974;50.838;4.636;2024-01-15T15:04:15;3.20;99.90
32536;DHT22;18974;50.838;4.636;2024-01-15T15:06:41;3.20;99.90
32536;DHT22;18974;50.838;4.636;2024-01-15T15:09:07;3.20;99.90
32536;DHT22;18974;50.838;4.636;2024-01-15T15:11:35;3.10;99.90
32536;DHT22;18974;50.838;4.636;2024-01-15T15:14:02;3.10;99.90
32536;DHT22;18974;50.838;4.636;2024-01-15T15:16:29;3.20;99.90
32536;DHT22;18974;50.838;4.636;2024-01-15T15:18:55;3.00;99.90
32536;DHT22;18974;50.838;4.636;2024-01-15T15:21:21;2.90;99.90
32536;DHT22;18974;50.838;4.636;2024-01-15T15:23:47;2.80;99.90
32536;DHT22;18974;50.838;4.636;2024-01-15T15:26:15;2.80;99.90
32536;DHT22;18974;50.838;4.636;2024-01-15T15:28:41;2.70;99.90
32536;DHT22;18974;50.838;4.636;2024-01-15T15:31:07;2.60;99.90
32536;DHT22;18974;50.838;4.636;2024-01-15T15:33:34;2.70;99.90
32536;DHT22;18974;50.838;4.636;2024-01-15T15:35:59;2.70;99.90
32536;DHT22;18974;50.838;4.636;2024-01-15T15:38:33;2.80;99.90
32536;DHT22;18974;50.838;4.636;2024-01-15T15:40:59;2.70;99.90
32536;DHT22;18974;50.838;4.636;2024-01-15T15:43:31;2.70;99.90
32536;DHT22;18974;50.838;4.636;2024-01-15T15:45:57;2.70;99.90
32536;DHT22;18974;50.838;4.636;2024-01-15T15:48:25;2.60;99.90
32536;DHT22;18974;50.838;4.636;2024-01-15T15:50:51;2.60;99.90
32536;DHT22;18974;50.838;4.636;2024-01-15T15:53:19;2.70;99.90
32536;DHT22;18974;50.838;4.636;2024-01-15T15:55:45;2.70;99.90